createdAt,value
2018-07-24T00:00:17.391Z,21.51
2018-07-24T00:02:47.289Z,21.44
2018-07-24T00:05:16.966Z,21.42
2018-07-24T00:07:47.193Z,21.32
2018-07-24T00:10:17.177Z,21.22
2018-07-24T00:12:46.732Z,21.12
2018-07-24T00:15:16.263Z,21.09
2018-07-24T00:17:45.908Z,21.03
2018-07-24T00:20:15.700Z,20.99
2018-07-24T00:22:46.110Z,20.94
2018-07-24T00:25:15.740Z,20.93
2018-07-24T00:27:45.604Z,20.87
2018-07-24T00:30:16.249Z,20.83
2018-07-24T00:32:46.015Z,20.75
2018-07-24T00:35:15.874Z,20.69
2018-07-24T00:37:45.685Z,20.65
2018-07-24T00:43:47.719Z,20.54
2018-07-24T00:46:18.089Z,20.53
2018-07-24T00:48:47.428Z,20.55
2018-07-24T00:51:16.918Z,20.56
2018-07-24T00:53:46.388Z,20.54
2018-07-24T00:56:15.864Z,20.57
2018-07-24T00:58:45.478Z,20.55
2018-07-24T01:01:14.943Z,20.59
2018-07-24T01:03:44.630Z,20.53
2018-07-24T01:06:14.497Z,20.55
2018-07-24T01:08:44.055Z,20.57
2018-07-24T01:11:14.009Z,20.56
2018-07-24T01:13:43.908Z,20.48
2018-07-24T01:16:13.519Z,20.36
2018-07-24T01:18:43.175Z,20.16
2018-07-24T01:21:15.369Z,20.17
2018-07-24T01:23:45.439Z,20.18
2018-07-24T01:26:15.319Z,20.19
2018-07-24T01:28:45.538Z,20.18
2018-07-24T01:31:15.109Z,20.14
2018-07-24T01:33:45.425Z,20.13
2018-07-24T01:36:15.194Z,20.10
2018-07-24T01:38:44.852Z,20.10
2018-07-24T01:41:14.451Z,20.09
2018-07-24T01:43:43.920Z,20.11
2018-07-24T01:46:13.470Z,20.06
2018-07-24T01:48:43.334Z,20.06
2018-07-24T01:51:12.687Z,20.02
2018-07-24T01:53:42.603Z,20.01
2018-07-24T01:56:12.658Z,19.99
2018-07-24T01:58:42.693Z,20.05
2018-07-24T02:01:12.137Z,20.06
2018-07-24T02:03:42.963Z,20.06
2018-07-24T02:06:13.059Z,20.03
2018-07-24T02:08:42.789Z,20.04
2018-07-24T02:11:12.371Z,19.97
2018-07-24T02:13:44.888Z,19.96
2018-07-24T02:16:14.372Z,19.96
2018-07-24T02:18:43.800Z,19.93
2018-07-24T02:21:13.766Z,20.04
2018-07-24T02:23:43.857Z,20.04
2018-07-24T02:26:13.523Z,19.95
2018-07-24T02:28:43.276Z,19.82
2018-07-24T02:31:12.985Z,19.76
2018-07-24T02:33:42.857Z,19.81
2018-07-24T02:36:12.417Z,19.76
2018-07-24T02:38:42.074Z,19.75
2018-07-24T02:41:12.296Z,19.75
2018-07-24T02:43:42.165Z,19.72
2018-07-24T02:46:11.664Z,19.60
2018-07-24T02:48:41.626Z,19.58
2018-07-24T02:51:11.537Z,19.50
2018-07-24T02:53:42.104Z,19.26
2018-07-24T02:56:12.032Z,19.11
2018-07-24T02:58:41.701Z,19.15
2018-07-24T03:01:12.334Z,19.09
2018-07-24T03:03:42.289Z,18.99
2018-07-24T03:06:12.134Z,19.04
2018-07-24T03:08:42.448Z,19.12
2018-07-24T03:11:11.963Z,19.14
2018-07-24T03:13:41.625Z,19.12
2018-07-24T03:16:17.421Z,19.32
2018-07-24T03:18:46.758Z,19.42
2018-07-24T03:21:16.160Z,19.36
2018-07-24T03:23:46.975Z,19.27
2018-07-24T03:26:16.451Z,19.22
2018-07-24T03:28:46.234Z,19.29
2018-07-24T03:31:15.769Z,19.29
2018-07-24T03:33:45.249Z,19.35
2018-07-24T03:36:15.117Z,19.42
2018-07-24T03:38:46.257Z,19.42
2018-07-24T03:41:16.652Z,19.32
2018-07-24T03:43:47.642Z,19.47
2018-07-24T03:46:17.511Z,19.63
2018-07-24T03:48:47.247Z,19.40
2018-07-24T03:51:17.153Z,19.31
2018-07-24T03:53:47.160Z,19.29
2018-07-24T03:56:16.708Z,19.28
2018-07-24T03:58:47.593Z,19.48
2018-07-24T04:01:17.316Z,19.63
2018-07-24T04:03:47.338Z,19.76
2018-07-24T04:06:19.366Z,19.84
2018-07-24T04:08:49.856Z,19.88
2018-07-24T04:11:19.560Z,19.88
2018-07-24T04:13:49.661Z,19.88
2018-07-24T04:16:19.171Z,19.92
2018-07-24T04:18:49.286Z,19.96
2018-07-24T04:21:20.540Z,19.94
2018-07-24T04:23:50.106Z,19.89
2018-07-24T04:26:20.475Z,19.92
2018-07-24T04:28:50.141Z,19.91
2018-07-24T04:31:19.417Z,19.73
2018-07-24T04:33:48.827Z,19.72
2018-07-24T04:36:20.001Z,19.59
2018-07-24T04:38:49.419Z,19.48
2018-07-24T04:41:19.247Z,19.47
2018-07-24T04:43:48.624Z,19.50
2018-07-24T04:46:17.866Z,19.50
2018-07-24T04:48:47.473Z,19.69
2018-07-24T04:51:16.968Z,19.84
2018-07-24T04:53:46.838Z,19.96
2018-07-24T04:56:16.108Z,20.02
2018-07-24T04:58:46.348Z,20.05
2018-07-24T05:01:15.989Z,20.07
2018-07-24T05:03:45.672Z,20.06
2018-07-24T05:06:15.283Z,19.98
2018-07-24T05:08:44.865Z,19.94
2018-07-24T05:11:14.486Z,19.96
2018-07-24T05:13:44.766Z,20.05
2018-07-24T05:16:14.523Z,20.12
2018-07-24T05:18:45.154Z,20.29
2018-07-24T05:21:16.149Z,20.38
2018-07-24T05:23:45.632Z,20.53
2018-07-24T05:26:15.178Z,20.72
2018-07-24T05:28:46.118Z,20.86
2018-07-24T05:31:15.879Z,21.01
2018-07-24T05:33:45.741Z,21.27
2018-07-24T05:36:15.305Z,21.54
2018-07-24T05:38:44.923Z,21.67
2018-07-24T05:41:14.413Z,21.80
2018-07-24T05:43:44.235Z,22.04
2018-07-24T05:46:14.049Z,22.13
2018-07-24T05:48:43.631Z,22.25
2018-07-24T05:51:14.017Z,22.34
2018-07-24T05:53:43.738Z,22.47
2018-07-24T05:56:14.370Z,22.59
2018-07-24T05:58:44.912Z,22.63
2018-07-24T06:01:14.915Z,22.63
2018-07-24T06:03:45.631Z,22.61
2018-07-24T06:06:15.426Z,22.74
2018-07-24T06:08:45.490Z,22.81
2018-07-24T06:11:15.250Z,22.95
2018-07-24T06:13:45.088Z,23.15
2018-07-24T06:16:15.032Z,23.26
2018-07-24T06:18:45.604Z,23.37
2018-07-24T06:21:15.412Z,23.40
2018-07-24T06:23:45.260Z,23.53
2018-07-24T06:26:15.396Z,23.64
2018-07-24T06:28:45.122Z,23.69
2018-07-24T06:31:14.761Z,23.80
2018-07-24T06:33:44.536Z,23.96
2018-07-24T06:36:14.623Z,24.12
2018-07-24T06:38:44.468Z,24.14
2018-07-24T06:41:14.311Z,24.26
2018-07-24T06:43:43.988Z,24.21
2018-07-24T06:46:13.779Z,24.28
2018-07-24T06:48:44.020Z,24.36
2018-07-24T06:51:13.656Z,24.45
2018-07-24T06:53:43.635Z,24.60
2018-07-24T06:56:15.233Z,24.71
2018-07-24T06:59:06.162Z,24.90
2018-07-24T07:01:35.608Z,24.97
2018-07-24T07:04:05.002Z,25.04
2018-07-24T07:06:34.280Z,25.16
2018-07-24T07:09:06.358Z,25.31
2018-07-24T07:11:35.881Z,25.31
2018-07-24T07:14:06.771Z,25.39
2018-07-24T07:16:36.381Z,25.31
2018-07-24T07:19:06.238Z,25.33
2018-07-24T07:21:35.627Z,25.27
2018-07-24T07:24:05.054Z,25.15
2018-07-24T07:26:35.980Z,25.15
2018-07-24T07:29:05.312Z,25.13
2018-07-24T07:31:34.592Z,25.11
2018-07-24T07:34:04.009Z,25.21
2018-07-24T07:36:33.322Z,25.29
2018-07-24T07:39:02.602Z,25.41
2018-07-24T07:41:31.966Z,25.37
2018-07-24T07:44:01.268Z,25.41
2018-07-24T07:46:30.665Z,25.42
2018-07-24T07:49:00.144Z,25.45
2018-07-24T07:51:30.669Z,25.58
2018-07-24T07:54:01.346Z,25.80
2018-07-24T07:56:30.626Z,25.95
2018-07-24T07:58:59.981Z,26.03
2018-07-24T08:01:29.276Z,26.08
2018-07-24T08:03:58.687Z,26.13
2018-07-24T08:06:31.443Z,26.22
2018-07-24T08:09:00.743Z,26.26
2018-07-24T08:11:30.036Z,26.41
2018-07-24T08:13:59.491Z,26.51
2018-07-24T08:16:30.150Z,26.46
2018-07-24T08:18:59.516Z,26.43
2018-07-24T08:21:29.716Z,26.43
2018-07-24T08:23:59.190Z,26.52
2018-07-24T08:26:28.548Z,26.42
2018-07-24T08:28:58.012Z,26.56
2018-07-24T08:31:27.612Z,26.73
2018-07-24T08:33:57.161Z,26.84
2018-07-24T08:36:26.970Z,26.92
2018-07-24T08:38:57.498Z,26.83
2018-07-24T08:41:27.167Z,26.96
2018-07-24T08:43:57.496Z,27.10
2018-07-24T08:46:26.900Z,27.27
2018-07-24T08:48:56.337Z,27.42
2018-07-24T08:51:25.677Z,27.36
2018-07-24T08:53:55.242Z,27.55
2018-07-24T08:56:24.283Z,27.85
2018-07-24T08:58:54.281Z,27.91
2018-07-24T09:01:23.886Z,27.97
2018-07-24T09:03:53.674Z,27.85
2018-07-24T09:06:23.599Z,27.75
2018-07-24T09:08:53.143Z,27.79
2018-07-24T09:11:22.671Z,27.76
2018-07-24T09:13:55.426Z,27.86
2018-07-24T09:16:25.069Z,27.84
2018-07-24T09:18:54.393Z,27.91
2018-07-24T09:21:23.960Z,27.96
2018-07-24T09:23:53.550Z,28.10
2018-07-24T09:26:23.570Z,28.15
2018-07-24T09:28:54.038Z,28.14
2018-07-24T09:31:24.560Z,28.14
2018-07-24T09:33:54.245Z,28.33
2018-07-24T09:36:24.781Z,28.41
2018-07-24T09:38:54.471Z,28.13
2018-07-24T09:41:24.153Z,28.36
2018-07-24T09:43:55.022Z,28.83
2018-07-24T09:46:24.594Z,29.47
2018-07-24T09:48:54.413Z,29.91
2018-07-24T09:51:24.138Z,30.90
2018-07-24T09:53:54.027Z,31.73
2018-07-24T09:56:23.654Z,32.14
2018-07-24T09:58:53.753Z,32.95
2018-07-24T10:01:28.375Z,33.39
2018-07-24T10:03:57.646Z,32.84
2018-07-24T10:06:26.984Z,33.41
2018-07-24T10:08:56.276Z,33.38
2018-07-24T10:11:25.742Z,34.14
2018-07-24T10:13:55.884Z,33.81
2018-07-24T10:16:25.268Z,34.28
2018-07-24T10:18:54.585Z,35.05
2018-07-24T10:21:24.026Z,35.70
2018-07-24T10:23:53.300Z,35.82
2018-07-24T10:26:23.015Z,36.24
2018-07-24T10:28:52.306Z,36.09
2018-07-24T10:31:21.798Z,35.95
2018-07-24T10:33:51.898Z,35.65
2018-07-24T10:36:21.380Z,35.91
2018-07-24T10:38:51.808Z,36.23
2018-07-24T10:41:21.866Z,35.38
2018-07-24T10:43:51.274Z,34.79
2018-07-24T10:46:21.422Z,34.50
2018-07-24T10:48:50.901Z,35.09
2018-07-24T10:51:20.830Z,35.80
2018-07-24T10:53:50.784Z,35.86
2018-07-24T10:56:20.978Z,36.43
2018-07-24T10:58:50.505Z,36.32
2018-07-24T11:01:20.089Z,36.34
2018-07-24T11:03:50.741Z,36.06
2018-07-24T11:06:20.314Z,36.34
2018-07-24T11:08:49.860Z,34.44
2018-07-24T11:11:19.747Z,34.50
2018-07-24T11:13:49.372Z,35.77
2018-07-24T11:16:19.165Z,35.31
2018-07-24T11:18:48.793Z,33.71
2018-07-24T11:21:18.598Z,34.24
2018-07-24T11:23:48.219Z,34.53
2018-07-24T11:26:18.159Z,34.89
2018-07-24T11:28:48.021Z,34.13
2018-07-24T11:31:17.697Z,33.13
2018-07-24T11:33:47.277Z,33.68
2018-07-24T11:36:17.764Z,34.27
2018-07-24T11:38:47.550Z,33.75
2018-07-24T11:41:17.525Z,34.44
2018-07-24T11:43:47.334Z,34.89
2018-07-24T11:46:18.425Z,36.23
2018-07-24T11:48:48.298Z,36.67
2018-07-24T11:51:17.825Z,36.59
2018-07-24T11:53:47.552Z,36.80
2018-07-24T11:56:17.623Z,36.38
2018-07-24T11:58:47.639Z,36.50
2018-07-24T12:01:17.350Z,36.07
2018-07-24T12:03:47.124Z,36.42
2018-07-24T12:06:16.915Z,36.41
2018-07-24T12:08:47.518Z,36.46
2018-07-24T12:11:17.105Z,36.90
2018-07-24T12:13:46.770Z,37.25
2018-07-24T12:16:16.352Z,37.53
2018-07-24T12:18:46.825Z,37.94
2018-07-24T12:21:16.438Z,38.20
2018-07-24T12:23:46.411Z,37.93
2018-07-24T12:26:16.151Z,37.97
2018-07-24T12:28:45.841Z,38.04
2018-07-24T12:31:15.448Z,36.71
2018-07-24T12:33:45.084Z,36.51
2018-07-24T12:36:15.216Z,36.73
2018-07-24T12:38:45.946Z,36.77
2018-07-24T12:41:16.601Z,37.14
2018-07-24T12:43:46.259Z,37.93
2018-07-24T12:46:15.981Z,38.23
2018-07-24T12:48:45.519Z,37.82
2018-07-24T12:51:15.391Z,38.54
2018-07-24T12:53:45.054Z,39.08
2018-07-24T12:56:15.909Z,38.96
2018-07-24T12:58:45.683Z,38.68
2018-07-24T13:01:15.299Z,38.27
2018-07-24T13:03:45.981Z,38.47
2018-07-24T13:06:16.009Z,37.37
2018-07-24T13:08:45.643Z,36.53
2018-07-24T13:11:15.635Z,35.57
2018-07-24T13:13:45.153Z,35.32
2018-07-24T13:16:15.280Z,35.18
2018-07-24T13:18:45.013Z,35.15
2018-07-24T13:21:14.692Z,35.51
2018-07-24T13:23:44.203Z,36.49
2018-07-24T13:26:13.846Z,36.73
2018-07-24T13:28:43.617Z,37.36
2018-07-24T13:31:13.455Z,38.01
2018-07-24T13:33:43.270Z,38.06
2018-07-24T13:36:13.067Z,38.21
2018-07-24T13:38:42.852Z,38.65
2018-07-24T13:41:12.486Z,39.05
2018-07-24T13:43:42.375Z,39.83
2018-07-24T13:46:13.818Z,39.85
2018-07-24T13:48:43.638Z,39.65
2018-07-24T13:51:13.629Z,39.30
2018-07-24T13:53:44.082Z,35.17
2018-07-24T13:56:14.043Z,36.33
2018-07-24T13:58:44.660Z,36.30
2018-07-24T14:01:14.653Z,36.36
2018-07-24T14:03:44.754Z,36.68
2018-07-24T14:06:14.874Z,35.74
2018-07-24T14:08:44.914Z,34.27
2018-07-24T14:11:14.650Z,35.47
2018-07-24T14:13:45.854Z,35.42
2018-07-24T14:16:16.275Z,34.83
2018-07-24T14:18:45.985Z,34.41
2018-07-24T14:21:16.741Z,33.79
2018-07-24T14:23:46.895Z,34.67
2018-07-24T14:26:16.685Z,35.85
2018-07-24T14:28:46.878Z,35.47
2018-07-24T14:31:18.746Z,34.73
2018-07-24T14:33:49.394Z,34.74
2018-07-24T14:36:19.245Z,34.39
2018-07-24T14:38:49.298Z,33.94
2018-07-24T14:41:20.057Z,32.64
2018-07-24T14:43:49.998Z,31.99
2018-07-24T14:46:19.598Z,32.07
2018-07-24T14:48:49.792Z,31.96
2018-07-24T14:51:19.678Z,31.75
2018-07-24T14:53:49.512Z,32.24
2018-07-24T14:56:20.041Z,33.37
2018-07-24T14:58:49.982Z,34.05
2018-07-24T15:01:20.130Z,33.57
2018-07-24T15:03:50.386Z,34.11
2018-07-24T15:06:20.988Z,34.61
2018-07-24T15:08:50.923Z,33.63
2018-07-24T15:11:20.839Z,33.25
2018-07-24T15:13:50.523Z,33.17
2018-07-24T15:16:20.440Z,33.59
2018-07-24T15:18:50.387Z,34.77
2018-07-24T15:21:19.945Z,35.76
2018-07-24T15:23:49.984Z,36.04
2018-07-24T15:26:20.357Z,36.03
2018-07-24T15:28:52.013Z,36.31
2018-07-24T15:31:22.291Z,35.77
2018-07-24T15:33:52.689Z,35.76
2018-07-24T15:36:22.348Z,35.50
2018-07-24T15:38:52.168Z,35.21
2018-07-24T15:41:22.284Z,35.97
2018-07-24T15:43:52.684Z,35.64
2018-07-24T15:46:22.127Z,36.22
2018-07-24T15:48:51.719Z,35.09
2018-07-24T15:51:22.404Z,34.37
2018-07-24T15:53:52.869Z,34.46
2018-07-24T15:56:22.358Z,35.32
2018-07-24T15:58:52.886Z,36.13
2018-07-24T16:01:22.651Z,36.06
2018-07-24T16:03:52.425Z,35.94
2018-07-24T16:06:22.193Z,34.41
2018-07-24T16:08:52.161Z,34.77
2018-07-24T16:11:22.019Z,35.25
2018-07-24T16:13:52.090Z,35.66
2018-07-24T16:16:22.213Z,36.27
2018-07-24T16:18:51.965Z,36.01
2018-07-24T16:21:22.549Z,35.09
2018-07-24T16:23:52.808Z,34.00
2018-07-24T16:26:31.304Z,34.67
2018-07-24T16:29:00.696Z,33.38
2018-07-24T16:31:30.204Z,31.81
2018-07-24T16:33:59.786Z,32.35
2018-07-24T16:36:30.288Z,33.26
2018-07-24T16:38:59.618Z,34.32
2018-07-24T16:41:29.063Z,34.24
2018-07-24T16:43:58.611Z,34.32
2018-07-24T16:46:27.869Z,34.93
2018-07-24T16:48:57.337Z,35.14
2018-07-24T16:51:27.223Z,35.29
2018-07-24T16:53:56.725Z,34.48
2018-07-24T16:56:27.015Z,33.10
2018-07-24T16:58:56.493Z,31.96
2018-07-24T17:01:25.931Z,31.60
2018-07-24T17:03:56.496Z,31.36
2018-07-24T17:06:26.203Z,31.12
2018-07-24T17:08:55.765Z,31.00
2018-07-24T17:11:25.181Z,30.84
2018-07-24T17:13:54.761Z,30.57
2018-07-24T17:16:24.090Z,30.50
2018-07-24T17:18:54.263Z,30.49
2018-07-24T17:21:23.586Z,30.56
2018-07-24T17:23:53.183Z,30.48
2018-07-24T17:26:23.903Z,30.42
2018-07-24T17:28:53.540Z,30.31
2018-07-24T17:31:23.181Z,30.42
2018-07-24T17:33:53.528Z,30.57
2018-07-24T17:36:23.067Z,30.34
2018-07-24T17:38:53.076Z,30.38
2018-07-24T17:41:23.254Z,30.21
2018-07-24T17:43:53.293Z,30.22
2018-07-24T17:46:22.979Z,30.18
2018-07-24T17:48:53.349Z,30.10
2018-07-24T17:51:22.965Z,29.87
2018-07-24T17:53:52.561Z,29.60
2018-07-24T17:56:22.083Z,29.44
2018-07-24T17:58:51.717Z,29.31
2018-07-24T18:01:21.205Z,29.77
2018-07-24T18:03:51.982Z,30.23
2018-07-24T18:06:21.897Z,30.76
2018-07-24T18:08:52.247Z,31.00
2018-07-24T18:11:22.023Z,31.05
2018-07-24T18:13:51.952Z,31.45
2018-07-24T18:16:21.784Z,31.37
2018-07-24T18:18:51.486Z,31.92
2018-07-24T18:21:21.909Z,32.24
2018-07-24T18:23:52.349Z,32.10
2018-07-24T18:26:21.714Z,32.28
2018-07-24T18:28:51.572Z,32.03
2018-07-24T18:31:23.045Z,31.94
2018-07-24T18:33:52.620Z,31.89
2018-07-24T18:36:22.007Z,31.86
2018-07-24T18:38:53.461Z,31.60
2018-07-24T18:41:23.363Z,31.56
2018-07-24T18:43:52.716Z,31.29
2018-07-24T18:46:23.112Z,31.21
2018-07-24T18:48:53.396Z,31.10
2018-07-24T18:51:22.939Z,30.61
2018-07-24T18:53:52.515Z,30.68
2018-07-24T18:56:22.302Z,30.68
2018-07-24T18:58:52.102Z,30.63
2018-07-24T19:01:22.136Z,30.24
2018-07-24T19:03:52.661Z,29.92
2018-07-24T19:06:22.296Z,29.48
2018-07-24T19:08:52.959Z,29.28
2018-07-24T19:11:22.528Z,29.07
2018-07-24T19:13:52.220Z,29.05
2018-07-24T19:16:22.873Z,28.95
2018-07-24T19:18:52.985Z,28.91
2018-07-24T19:21:22.825Z,28.71
2018-07-24T19:23:52.612Z,28.64
2018-07-24T19:26:22.092Z,28.71
2018-07-24T19:28:51.733Z,28.64
2018-07-24T19:31:23.003Z,28.59
2018-07-24T19:33:52.474Z,28.55
2018-07-24T19:36:22.240Z,28.47
2018-07-24T19:38:52.132Z,28.42
2018-07-24T19:41:22.039Z,28.33
2018-07-24T19:43:54.680Z,28.38
2018-07-24T19:46:27.129Z,28.44
2018-07-24T19:49:00.903Z,28.42
2018-07-24T19:51:30.274Z,28.42
2018-07-24T19:54:01.196Z,28.12
2018-07-24T19:56:32.881Z,28.06
2018-07-24T19:59:02.648Z,27.97
2018-07-24T20:01:32.744Z,27.91
2018-07-24T20:04:02.510Z,28.06
2018-07-24T20:06:39.688Z,27.95
2018-07-24T20:09:12.542Z,28.08
2018-07-24T20:11:43.116Z,28.05
2018-07-24T20:14:14.391Z,28.13
2018-07-24T20:16:44.517Z,28.01
2018-07-24T20:19:14.710Z,27.86
2018-07-24T20:21:44.498Z,27.73
2018-07-24T20:24:15.537Z,27.74
2018-07-24T20:26:46.042Z,27.74
2018-07-24T20:29:17.109Z,27.74
2018-07-24T20:31:49.242Z,27.77
2018-07-24T20:34:19.337Z,27.80
2018-07-24T20:36:49.881Z,27.63
2018-07-24T20:39:19.572Z,27.55
2018-07-24T20:41:49.805Z,27.45
2018-07-24T20:44:19.567Z,27.38
2018-07-24T20:46:49.303Z,27.47
2018-07-24T20:49:21.708Z,27.33
2018-07-24T20:51:51.827Z,27.29
2018-07-24T20:54:21.525Z,27.21
2018-07-24T20:56:51.840Z,27.32
2018-07-24T20:59:22.154Z,27.14
2018-07-24T21:01:51.662Z,27.08
2018-07-24T21:04:22.358Z,27.09
2018-07-24T21:06:52.044Z,26.97
2018-07-24T21:09:21.982Z,26.94
2018-07-24T21:11:52.252Z,26.89
2018-07-24T21:14:22.473Z,26.88
2018-07-24T21:16:52.076Z,26.98
2018-07-24T21:19:22.013Z,27.04
2018-07-24T21:21:53.682Z,27.10
2018-07-24T21:24:23.368Z,27.09
2018-07-24T21:26:52.717Z,27.09
2018-07-24T21:29:23.714Z,27.02
2018-07-24T21:31:53.204Z,26.97
2018-07-24T21:34:22.632Z,26.95
2018-07-24T21:36:52.943Z,26.89
2018-07-24T21:39:22.651Z,26.84
2018-07-24T21:41:52.356Z,26.78
2018-07-24T21:44:22.181Z,26.73
2018-07-24T21:46:52.155Z,26.66
2018-07-24T21:49:22.285Z,26.67
2018-07-24T21:51:53.037Z,26.63
2018-07-24T21:54:22.821Z,26.57
2018-07-24T21:56:53.374Z,26.48
2018-07-24T21:59:24.158Z,26.43
2018-07-24T22:01:53.489Z,26.31
2018-07-24T22:04:22.914Z,26.24
2018-07-24T22:06:53.798Z,26.24
2018-07-24T22:09:23.371Z,26.28
2018-07-24T22:11:52.917Z,26.25
2018-07-24T22:14:22.549Z,26.25
2018-07-24T22:16:52.318Z,26.22
2018-07-24T22:19:22.246Z,26.17
2018-07-24T22:21:52.190Z,26.09
2018-07-24T22:24:21.881Z,26.10
2018-07-24T22:26:51.532Z,26.03
2018-07-24T22:29:21.102Z,25.97
2018-07-24T22:31:51.012Z,25.96
2018-07-24T22:34:20.341Z,25.88
2018-07-24T22:36:50.620Z,25.85
2018-07-24T22:39:20.017Z,25.86
2018-07-24T22:41:49.317Z,25.86
2018-07-24T22:47:10.782Z,25.80
2018-07-24T22:49:40.490Z,25.76
2018-07-24T22:52:10.824Z,25.74
2018-07-24T22:54:41.126Z,25.70
2018-07-24T22:57:11.310Z,25.67
2018-07-24T22:59:41.442Z,25.67
2018-07-24T23:02:11.829Z,25.64
2018-07-24T23:04:41.510Z,25.63
2018-07-24T23:07:11.167Z,25.59
2018-07-24T23:09:41.242Z,25.52
2018-07-24T23:12:10.922Z,25.44
2018-07-24T23:14:40.485Z,25.48
2018-07-24T23:17:10.389Z,25.48
2018-07-24T23:19:40.972Z,25.53
2018-07-24T23:22:10.668Z,25.54
2018-07-24T23:24:40.342Z,25.55
2018-07-24T23:27:11.228Z,25.40
2018-07-24T23:29:41.195Z,25.30
2018-07-24T23:32:11.001Z,25.08
2018-07-24T23:34:41.137Z,25.22
2018-07-24T23:37:11.282Z,25.36
2018-07-24T23:39:41.168Z,25.02
2018-07-24T23:42:11.181Z,25.00
2018-07-24T23:44:41.122Z,24.99
2018-07-24T23:47:11.454Z,25.08
2018-07-24T23:49:41.385Z,24.96
2018-07-24T23:52:11.600Z,24.82
2018-07-24T23:54:41.632Z,24.73
2018-07-24T23:57:11.628Z,24.83
2018-07-24T23:59:41.718Z,24.92
